Current Weather

Farnborough

Farnborough, United Kingdom (EGLF)

Report from: Saturday, June 22, 2024 10:20 AM BST
Current time: Saturday, June 22, 2024 10:58 AM BST

Nearby weather – Weather history – Daily summaries
Weather forecast

Temperature16.0°C (60.8°F)
Dew point12.0°C (53.6°F)
Winds 12 kts (6.2 m/s, 13.8 mph) West-Northwest (300°)
Visibility6.2 mi. (10 km)
Clouds Scattered clouds 1,400 ft. (427 m)
Ceiling: Broken clouds 2,900 ft. (884 m)
Altimeter29.88 in.Hg (1012 mB)
Relative humidity77 %
Density altitude357 ft. (109 m)
Flight conditions Marginal Visual Meteorological Conditions
Raw dataEGLF 220920Z 30012KT 9999 SCT014 BKN029 16/12 Q1012
An error has occurred. This application may no longer respond until reloaded. Reload 🗙